sensor_id;sensor_type;location;lat;lon;timestamp;P1;durP1;ratioP1;P2;durP2;ratioP2
11135;SDS011;5622;50.840;4.948;2023-05-07T08:26:18;5.13;;;3.80;;
11135;SDS011;5622;50.840;4.948;2023-05-07T08:28:46;8.00;;;4.13;;
11135;SDS011;5622;50.840;4.948;2023-05-07T08:41:36;9.47;;;4.10;;
11135;SDS011;5622;50.840;4.948;2023-05-07T08:44:03;8.10;;;3.80;;
11135;SDS011;5622;50.840;4.948;2023-05-07T08:59:56;6.77;;;4.13;;
11135;SDS011;5622;50.840;4.948;2023-05-07T11:43:36;6.63;;;3.97;;
11135;SDS011;5622;50.840;4.948;2023-05-07T11:46:07;8.23;;;3.30;;
11135;SDS011;5622;50.840;4.948;2023-05-07T11:48:39;9.07;;;3.70;;
11135;SDS011;5622;50.840;4.948;2023-05-07T11:51:18;8.43;;;3.50;;
11135;SDS011;5622;50.840;4.948;2023-05-07T11:53:49;6.17;;;3.37;;
11135;SDS011;5622;50.840;4.948;2023-05-07T11:56:28;7.70;;;3.70;;
11135;SDS011;5622;50.840;4.948;2023-05-07T11:59:03;6.60;;;4.20;;
11135;SDS011;5622;50.840;4.948;2023-05-07T12:01:39;5.10;;;4.10;;
11135;SDS011;5622;50.840;4.948;2023-05-07T12:04:19;8.07;;;4.83;;
11135;SDS011;5622;50.840;4.948;2023-05-07T12:07:19;8.27;;;4.47;;
11135;SDS011;5622;50.840;4.948;2023-05-07T12:10:04;7.63;;;4.40;;
11135;SDS011;5622;50.840;4.948;2023-05-07T12:15:57;7.00;;;4.60;;
11135;SDS011;5622;50.840;4.948;2023-05-07T12:18:53;9.63;;;5.30;;
11135;SDS011;5622;50.840;4.948;2023-05-07T12:21:29;6.00;;;4.80;;
11135;SDS011;5622;50.840;4.948;2023-05-07T12:24:21;8.53;;;4.50;;
11135;SDS011;5622;50.840;4.948;2023-05-07T12:27:19;10.17;;;4.47;;
11135;SDS011;5622;50.840;4.948;2023-05-07T12:32:48;7.33;;;3.80;;
11135;SDS011;5622;50.840;4.948;2023-05-07T12:35:41;7.53;;;4.07;;
11135;SDS011;5622;50.840;4.948;2023-05-07T12:38:22;4.80;;;3.70;;
11135;SDS011;5622;50.840;4.948;2023-05-07T12:41:00;8.70;;;4.80;;
11135;SDS011;5622;50.840;4.948;2023-05-07T12:43:43;6.10;;;4.40;;
11135;SDS011;5622;50.840;4.948;2023-05-07T12:46:30;8.27;;;4.87;;
11135;SDS011;5622;50.840;4.948;2023-05-07T12:48:59;7.17;;;4.23;;
11135;SDS011;5622;50.840;4.948;2023-05-07T12:52:03;5.73;;;4.33;;
11135;SDS011;5622;50.840;4.948;2023-05-07T12:55:00;8.50;;;4.03;;
11135;SDS011;5622;50.840;4.948;2023-05-07T12:58:00;7.43;;;4.90;;
11135;SDS011;5622;50.840;4.948;2023-05-07T13:00:34;6.47;;;3.80;;
11135;SDS011;5622;50.840;4.948;2023-05-07T13:03:27;5.97;;;3.80;;
11135;SDS011;5622;50.840;4.948;2023-05-07T13:06:11;7.10;;;3.77;;
11135;SDS011;5622;50.840;4.948;2023-05-07T13:08:47;7.17;;;3.60;;
11135;SDS011;5622;50.840;4.948;2023-05-07T13:11:23;5.77;;;3.60;;
11135;SDS011;5622;50.840;4.948;2023-05-07T13:13:55;8.00;;;4.23;;
11135;SDS011;5622;50.840;4.948;2023-05-07T13:16:35;6.70;;;4.27;;
11135;SDS011;5622;50.840;4.948;2023-05-07T13:19:13;7.00;;;3.83;;
11135;SDS011;5622;50.840;4.948;2023-05-07T13:21:46;5.60;;;3.43;;
11135;SDS011;5622;50.840;4.948;2023-05-07T13:24:18;5.43;;;3.80;;
11135;SDS011;5622;50.840;4.948;2023-05-07T13:26:47;8.50;;;3.80;;
11135;SDS011;5622;50.840;4.948;2023-05-07T13:29:18;5.00;;;3.43;;
11135;SDS011;5622;50.840;4.948;2023-05-07T13:31:52;4.83;;;3.10;;
11135;SDS011;5622;50.840;4.948;2023-05-07T13:34:41;6.53;;;4.00;;
11135;SDS011;5622;50.840;4.948;2023-05-07T13:37:25;6.07;;;3.60;;
11135;SDS011;5622;50.840;4.948;2023-05-07T13:39:57;4.20;;;3.80;;
11135;SDS011;5622;50.840;4.948;2023-05-07T13:42:28;6.27;;;3.20;;
11135;SDS011;5622;50.840;4.948;2023-05-07T13:44:59;7.40;;;2.90;;
11135;SDS011;5622;50.840;4.948;2023-05-07T13:47:34;4.77;;;2.60;;
11135;SDS011;5622;50.840;4.948;2023-05-07T13:50:07;4.90;;;2.77;;
11135;SDS011;5622;50.840;4.948;2023-05-07T13:52:36;3.73;;;2.50;;
11135;SDS011;5622;50.840;4.948;2023-05-07T13:55:05;4.20;;;2.30;;
11135;SDS011;5622;50.840;4.948;2023-05-07T13:57:34;3.70;;;3.23;;
11135;SDS011;5622;50.840;4.948;2023-05-07T14:00:05;4.73;;;2.30;;
11135;SDS011;5622;50.840;4.948;2023-05-07T14:02:37;4.77;;;3.50;;
11135;SDS011;5622;50.840;4.948;2023-05-07T14:05:10;5.17;;;2.33;;
11135;SDS011;5622;50.840;4.948;2023-05-07T14:07:44;4.70;;;2.40;;
11135;SDS011;5622;50.840;4.948;2023-05-07T14:10:16;3.37;;;2.20;;
11135;SDS011;5622;50.840;4.948;2023-05-07T14:12:47;4.40;;;2.40;;
11135;SDS011;5622;50.840;4.948;2023-05-07T14:15:19;5.00;;;2.40;;
11135;SDS011;5622;50.840;4.948;2023-05-07T14:17:53;4.87;;;2.40;;
11135;SDS011;5622;50.840;4.948;2023-05-07T14:20:24;3.33;;;2.07;;
11135;SDS011;5622;50.840;4.948;2023-05-07T14:22:51;4.50;;;2.50;;
11135;SDS011;5622;50.840;4.948;2023-05-07T14:25:19;3.97;;;2.43;;
11135;SDS011;5622;50.840;4.948;2023-05-07T14:43:40;3.47;;;2.43;;
11135;SDS011;5622;50.840;4.948;2023-05-07T15:27:36;4.50;;;2.60;;
11135;SDS011;5622;50.840;4.948;2023-05-07T17:49:17;4.57;;;2.80;;
11135;SDS011;5622;50.840;4.948;2023-05-07T17:51:49;4.63;;;3.07;;
